sensor_id;sensor_type;location;lat;lon;timestamp;pressure;altitude;pressure_sealevel;temperature;humidity
59170;BME280;52474;52.236;5.114;2023-03-16T00:01:19;101784.28;;;3.87;100.00
59170;BME280;52474;52.236;5.114;2023-03-16T00:03:45;101785.00;;;3.91;100.00
59170;BME280;52474;52.236;5.114;2023-03-16T00:06:11;101777.88;;;3.95;100.00
59170;BME280;52474;52.236;5.114;2023-03-16T00:08:36;101775.16;;;3.96;100.00
59170;BME280;52474;52.236;5.114;2023-03-16T00:11:04;101738.63;;;3.73;100.00
59170;BME280;52474;52.236;5.114;2023-03-16T00:13:29;101773.47;;;3.95;100.00
59170;BME280;52474;52.236;5.114;2023-03-16T00:15:58;101748.72;;;3.82;100.00
59170;BME280;52474;52.236;5.114;2023-03-16T00:18:25;101762.16;;;3.95;100.00
59170;BME280;52474;52.236;5.114;2023-03-16T00:20:53;101736.47;;;3.82;100.00
59170;BME280;52474;52.236;5.114;2023-03-16T00:23:20;101731.28;;;3.81;100.00
59170;BME280;52474;52.236;5.114;2023-03-16T00:25:56;101734.69;;;3.83;100.00
59170;BME280;52474;52.236;5.114;2023-03-16T00:28:23;101740.78;;;3.83;100.00
59170;BME280;52474;52.236;5.114;2023-03-16T00:30:49;101752.69;;;3.91;100.00
59170;BME280;52474;52.236;5.114;2023-03-16T00:33:15;101745.78;;;3.90;100.00
59170;BME280;52474;52.236;5.114;2023-03-16T00:35:45;101731.03;;;3.87;100.00
59170;BME280;52474;52.236;5.114;2023-03-16T00:38:18;101745.69;;;3.91;100.00
59170;BME280;52474;52.236;5.114;2023-03-16T00:40:44;101745.69;;;3.91;100.00
59170;BME280;52474;52.236;5.114;2023-03-16T00:43:10;101730.38;;;3.82;100.00
59170;BME280;52474;52.236;5.114;2023-03-16T00:45:42;101747.53;;;3.89;100.00
59170;BME280;52474;52.236;5.114;2023-03-16T00:48:09;101738.63;;;3.93;100.00
59170;BME280;52474;52.236;5.114;2023-03-16T00:50:36;101726.34;;;3.94;100.00
59170;BME280;52474;52.236;5.114;2023-03-16T00:53:02;101728.13;;;3.93;100.00
59170;BME280;52474;52.236;5.114;2023-03-16T00:55:28;101705.91;;;3.81;100.00
59170;BME280;52474;52.236;5.114;2023-03-16T00:57:53;101698.81;;;3.85;100.00
59170;BME280;52474;52.236;5.114;2023-03-16T01:00:19;101709.88;;;3.92;100.00
59170;BME280;52474;52.236;5.114;2023-03-16T01:02:46;101712.34;;;3.95;100.00
59170;BME280;52474;52.236;5.114;2023-03-16T01:05:13;101700.25;;;3.92;100.00
59170;BME280;52474;52.236;5.114;2023-03-16T01:07:40;101700.09;;;3.95;100.00
59170;BME280;52474;52.236;5.114;2023-03-16T01:10:06;101688.38;;;3.83;100.00
59170;BME280;52474;52.236;5.114;2023-03-16T01:12:33;101707.13;;;3.95;100.00
59170;BME280;52474;52.236;5.114;2023-03-16T01:14:59;101690.88;;;3.86;100.00
59170;BME280;52474;52.236;5.114;2023-03-16T01:17:25;101678.63;;;3.87;100.00
59170;BME280;52474;52.236;5.114;2023-03-16T01:19:51;101690.53;;;3.94;100.00
59170;BME280;52474;52.236;5.114;2023-03-16T01:22:17;101681.25;;;3.87;100.00
59170;BME280;52474;52.236;5.114;2023-03-16T01:24:43;101668.28;;;3.84;100.00
59170;BME280;52474;52.236;5.114;2023-03-16T01:27:10;101681.69;;;3.97;100.00
59170;BME280;52474;52.236;5.114;2023-03-16T01:29:37;101671.41;;;3.92;100.00
59170;BME280;52474;52.236;5.114;2023-03-16T01:32:05;101662.06;;;3.86;100.00
59170;BME280;52474;52.236;5.114;2023-03-16T01:34:33;101668.84;;;3.91;100.00
59170;BME280;52474;52.236;5.114;2023-03-16T01:36:59;101673.94;;;3.94;100.00
59170;BME280;52474;52.236;5.114;2023-03-16T01:39:33;101669.50;;;3.96;100.00
59170;BME280;52474;52.236;5.114;2023-03-16T01:41:58;101663.47;;;3.94;100.00
59170;BME280;52474;52.236;5.114;2023-03-16T01:44:26;101651.34;;;3.91;100.00
59170;BME280;52474;52.236;5.114;2023-03-16T01:47:02;101627.41;;;3.80;100.00
59170;BME280;52474;52.236;5.114;2023-03-16T01:49:33;101641.66;;;3.93;100.00
59170;BME280;52474;52.236;5.114;2023-03-16T01:52:13;101639.88;;;3.94;100.00
59170;BME280;52474;52.236;5.114;2023-03-16T01:54:48;101634.56;;;3.95;100.00
59170;BME280;52474;52.236;5.114;2023-03-16T01:57:25;101637.84;;;4.00;100.00
59170;BME280;52474;52.236;5.114;2023-03-16T02:03:10;101626.38;;;4.03;100.00
59170;BME280;52474;52.236;5.114;2023-03-16T02:08:13;101627.78;;;4.10;100.00
59170;BME280;52474;52.236;5.114;2023-03-16T02:10:40;101620.22;;;4.04;100.00
59170;BME280;52474;52.236;5.114;2023-03-16T02:13:22;101611.56;;;4.02;100.00
59170;BME280;52474;52.236;5.114;2023-03-16T02:15:50;101620.13;;;4.05;100.00
59170;BME280;52474;52.236;5.114;2023-03-16T02:18:19;101617.34;;;4.08;100.00
59170;BME280;52474;52.236;5.114;2023-03-16T02:21:02;101613.91;;;4.08;100.00
59170;BME280;52474;52.236;5.114;2023-03-16T02:23:30;101596.75;;;4.01;100.00
59170;BME280;52474;52.236;5.114;2023-03-16T02:32:09;101592.50;;;4.17;100.00
59170;BME280;52474;52.236;5.114;2023-03-16T02:34:37;101591.09;;;4.10;100.00
59170;BME280;52474;52.236;5.114;2023-03-16T02:37:03;101581.75;;;4.04;100.00
59170;BME280;52474;52.236;5.114;2023-03-16T02:39:30;101600.44;;;4.16;100.00
59170;BME280;52474;52.236;5.114;2023-03-16T02:41:56;101599.59;;;4.15;100.00
59170;BME280;52474;52.236;5.114;2023-03-16T02:44:35;101606.31;;;4.21;100.00
59170;BME280;52474;52.236;5.114;2023-03-16T02:47:12;101610.72;;;4.20;100.00
59170;BME280;52474;52.236;5.114;2023-03-16T02:49:42;101603.78;;;4.19;100.00
59170;BME280;52474;52.236;5.114;2023-03-16T02:52:08;101602.94;;;4.19;100.00
59170;BME280;52474;52.236;5.114;2023-03-16T02:54:34;101597.97;;;4.13;100.00
59170;BME280;52474;52.236;5.114;2023-03-16T02:57:06;101591.50;;;4.20;100.00
59170;BME280;52474;52.236;5.114;2023-03-16T02:59:33;101585.50;;;4.18;100.00
59170;BME280;52474;52.236;5.114;2023-03-16T03:02:08;101586.22;;;4.21;100.00
59170;BME280;52474;52.236;5.114;2023-03-16T03:04:35;101596.69;;;4.21;100.00
59170;BME280;52474;52.236;5.114;2023-03-16T03:07:01;101570.19;;;4.08;100.00
59170;BME280;52474;52.236;5.114;2023-03-16T03:09:31;101592.28;;;4.22;100.00
59170;BME280;52474;52.236;5.114;2023-03-16T03:11:58;101579.69;;;4.11;100.00
59170;BME280;52474;52.236;5.114;2023-03-16T03:14:23;101586.75;;;4.28;100.00
59170;BME280;52474;52.236;5.114;2023-03-16T03:16:50;101572.38;;;4.18;100.00
59170;BME280;52474;52.236;5.114;2023-03-16T03:19:16;101574.94;;;4.19;100.00
59170;BME280;52474;52.236;5.114;2023-03-16T03:21:42;101591.16;;;4.27;100.00
59170;BME280;52474;52.236;5.114;2023-03-16T03:24:08;101584.38;;;4.23;100.00
59170;BME280;52474;52.236;5.114;2023-03-16T03:26:34;101581.59;;;4.26;100.00
59170;BME280;52474;52.236;5.114;2023-03-16T03:29:03;101558.47;;;4.16;100.00
59170;BME280;52474;52.236;5.114;2023-03-16T03:31:31;101576.56;;;4.22;100.00
59170;BME280;52474;52.236;5.114;2023-03-16T03:33:57;101568.84;;;4.19;100.00
59170;BME280;52474;52.236;5.114;2023-03-16T03:36:23;101561.88;;;4.18;100.00
59170;BME280;52474;52.236;5.114;2023-03-16T03:38:48;101560.13;;;4.18;100.00
59170;BME280;52474;52.236;5.114;2023-03-16T03:41:16;101560.19;;;4.17;100.00
59170;BME280;52474;52.236;5.114;2023-03-16T03:43:43;101561.97;;;4.16;100.00
59170;BME280;52474;52.236;5.114;2023-03-16T03:46:14;101563.09;;;4.11;100.00
59170;BME280;52474;52.236;5.114;2023-03-16T03:48:39;101558.78;;;4.09;100.00
59170;BME280;52474;52.236;5.114;2023-03-16T03:51:05;101536.47;;;4.01;100.00
59170;BME280;52474;52.236;5.114;2023-03-16T03:53:54;101548.38;;;4.08;100.00
59170;BME280;52474;52.236;5.114;2023-03-16T03:56:41;101544.84;;;4.09;100.00
59170;BME280;52474;52.236;5.114;2023-03-16T03:59:11;101548.50;;;4.05;100.00
59170;BME280;52474;52.236;5.114;2023-03-16T04:02:17;101546.03;;;4.02;100.00
59170;BME280;52474;52.236;5.114;2023-03-16T04:04:56;101521.31;;;3.88;100.00
59170;BME280;52474;52.236;5.114;2023-03-16T04:07:22;101529.19;;;3.88;100.00
59170;BME280;52474;52.236;5.114;2023-03-16T04:09:50;101541.78;;;3.99;100.00
59170;BME280;52474;52.236;5.114;2023-03-16T04:12:27;101541.00;;;3.97;100.00
59170;BME280;52474;52.236;5.114;2023-03-16T04:14:53;101521.19;;;3.92;100.00
59170;BME280;52474;52.236;5.114;2023-03-16T04:17:20;101540.16;;;3.97;100.00
59170;BME280;52474;52.236;5.114;2023-03-16T04:19:46;101535.84;;;3.96;100.00
59170;BME280;52474;52.236;5.114;2023-03-16T04:22:15;101526.34;;;3.93;100.00
59170;BME280;52474;52.236;5.114;2023-03-16T04:24:41;101535.78;;;3.97;100.00
59170;BME280;52474;52.236;5.114;2023-03-16T04:27:10;101527.06;;;3.97;100.00
59170;BME280;52474;52.236;5.114;2023-03-16T04:29:37;101494.78;;;3.77;100.00
59170;BME280;52474;52.236;5.114;2023-03-16T04:32:05;101522.66;;;3.97;100.00
59170;BME280;52474;52.236;5.114;2023-03-16T04:34:36;101520.88;;;3.98;100.00
59170;BME280;52474;52.236;5.114;2023-03-16T04:37:04;101520.03;;;3.97;100.00
59170;BME280;52474;52.236;5.114;2023-03-16T04:39:32;101523.44;;;3.99;100.00
59170;BME280;52474;52.236;5.114;2023-03-16T04:41:59;101495.09;;;3.88;100.00
59170;BME280;52474;52.236;5.114;2023-03-16T04:44:26;101511.03;;;4.03;100.00
59170;BME280;52474;52.236;5.114;2023-03-16T04:46:52;101509.25;;;4.03;100.00
59170;BME280;52474;52.236;5.114;2023-03-16T04:49:19;101511.88;;;4.03;100.00
59170;BME280;52474;52.236;5.114;2023-03-16T04:51:46;101517.00;;;4.06;100.00
59170;BME280;52474;52.236;5.114;2023-03-16T04:54:14;101508.19;;;4.07;100.00
59170;BME280;52474;52.236;5.114;2023-03-16T04:56:42;101510.75;;;4.09;100.00
59170;BME280;52474;52.236;5.114;2023-03-16T04:59:27;101495.41;;;4.01;100.00
59170;BME280;52474;52.236;5.114;2023-03-16T05:02:06;101517.47;;;4.15;100.00
59170;BME280;52474;52.236;5.114;2023-03-16T05:04:32;101509.56;;;4.16;100.00
59170;BME280;52474;52.236;5.114;2023-03-16T05:06:59;101487.28;;;4.06;100.00
59170;BME280;52474;52.236;5.114;2023-03-16T05:09:31;101506.22;;;4.13;100.00
59170;BME280;52474;52.236;5.114;2023-03-16T05:11:57;101512.28;;;4.13;100.00
59170;BME280;52474;52.236;5.114;2023-03-16T05:14:23;101519.41;;;4.11;100.00
59170;BME280;52474;52.236;5.114;2023-03-16T05:16:59;101516.53;;;4.16;100.00
59170;BME280;52474;52.236;5.114;2023-03-16T05:19:28;101506.16;;;4.14;100.00
59170;BME280;52474;52.236;5.114;2023-03-16T05:21:55;101521.03;;;4.14;100.00
59170;BME280;52474;52.236;5.114;2023-03-16T05:24:21;101494.63;;;3.99;100.00
59170;BME280;52474;52.236;5.114;2023-03-16T05:26:48;101514.16;;;4.11;100.00
59170;BME280;52474;52.236;5.114;2023-03-16T05:29:16;101498.03;;;4.01;100.00
59170;BME280;52474;52.236;5.114;2023-03-16T05:31:43;101514.22;;;4.09;100.00
59170;BME280;52474;52.236;5.114;2023-03-16T05:34:14;101499.56;;;4.05;100.00
59170;BME280;52474;52.236;5.114;2023-03-16T05:36:39;101480.72;;;3.97;100.00
59170;BME280;52474;52.236;5.114;2023-03-16T05:39:11;101496.16;;;4.03;100.00
59170;BME280;52474;52.236;5.114;2023-03-16T05:41:42;101484.81;;;4.03;100.00
59170;BME280;52474;52.236;5.114;2023-03-16T05:44:15;101461.41;;;3.81;100.00
59170;BME280;52474;52.236;5.114;2023-03-16T05:46:57;101478.38;;;3.91;100.00
59170;BME280;52474;52.236;5.114;2023-03-16T05:49:22;101472.47;;;3.87;100.00
59170;BME280;52474;52.236;5.114;2023-03-16T05:51:48;101462.97;;;3.85;100.00
59170;BME280;52474;52.236;5.114;2023-03-16T05:54:15;101475.66;;;3.94;100.00
59170;BME280;52474;52.236;5.114;2023-03-16T05:56:43;101474.03;;;3.92;100.00
59170;BME280;52474;52.236;5.114;2023-03-16T05:59:09;101479.09;;;3.95;100.00
59170;BME280;52474;52.236;5.114;2023-03-16T06:01:35;101480.78;;;3.96;100.00
59170;BME280;52474;52.236;5.114;2023-03-16T06:04:02;101473.66;;;3.99;100.00
59170;BME280;52474;52.236;5.114;2023-03-16T06:06:33;101473.72;;;3.98;100.00
59170;BME280;52474;52.236;5.114;2023-03-16T06:09:06;101469.19;;;4.01;100.00
59170;BME280;52474;52.236;5.114;2023-03-16T06:11:32;101471.56;;;4.06;100.00
59170;BME280;52474;52.236;5.114;2023-03-16T06:13:59;101469.03;;;4.04;100.00
59170;BME280;52474;52.236;5.114;2023-03-16T06:16:25;101471.66;;;4.04;100.00
59170;BME280;52474;52.236;5.114;2023-03-16T06:18:51;101467.19;;;4.06;100.00
59170;BME280;52474;52.236;5.114;2023-03-16T06:21:17;101469.66;;;4.09;100.00
59170;BME280;52474;52.236;5.114;2023-03-16T06:23:46;101467.94;;;4.08;100.00
59170;BME280;52474;52.236;5.114;2023-03-16T06:26:11;101465.06;;;4.15;100.00
59170;BME280;52474;52.236;5.114;2023-03-16T06:28:40;101474.69;;;4.14;100.00
59170;BME280;52474;52.236;5.114;2023-03-16T06:31:06;101457.19;;;4.15;100.00
59170;BME280;52474;52.236;5.114;2023-03-16T06:33:34;101462.38;;;4.16;100.00
59170;BME280;52474;52.236;5.114;2023-03-16T06:36:00;101459.59;;;4.19;100.00
59170;BME280;52474;52.236;5.114;2023-03-16T06:38:36;101447.31;;;4.20;100.00
59170;BME280;52474;52.236;5.114;2023-03-16T06:41:05;101452.28;;;4.26;100.00
59170;BME280;52474;52.236;5.114;2023-03-16T06:43:33;101450.50;;;4.26;100.00
59170;BME280;52474;52.236;5.114;2023-03-16T06:46:00;101429.97;;;4.17;100.00
59170;BME280;52474;52.236;5.114;2023-03-16T06:48:26;101443.69;;;4.22;100.00
59170;BME280;52474;52.236;5.114;2023-03-16T06:50:52;101451.66;;;4.38;100.00
59170;BME280;52474;52.236;5.114;2023-03-16T06:53:22;101448.78;;;4.43;100.00
59170;BME280;52474;52.236;5.114;2023-03-16T06:55:48;101445.03;;;4.48;100.00
59170;BME280;52474;52.236;5.114;2023-03-16T06:58:15;101425.66;;;4.51;100.00
59170;BME280;52474;52.236;5.114;2023-03-16T07:00:43;101443.94;;;4.52;100.00
59170;BME280;52474;52.236;5.114;2023-03-16T07:03:09;101421.56;;;4.45;100.00
59170;BME280;52474;52.236;5.114;2023-03-16T07:05:36;101433.31;;;4.56;100.00
59170;BME280;52474;52.236;5.114;2023-03-16T07:08:04;101438.22;;;4.62;100.00
59170;BME280;52474;52.236;5.114;2023-03-16T07:10:41;101443.09;;;4.69;100.00
59170;BME280;52474;52.236;5.114;2023-03-16T07:13:07;101431.34;;;4.77;100.00
59170;BME280;52474;52.236;5.114;2023-03-16T07:15:33;101422.88;;;4.71;100.00
59170;BME280;52474;52.236;5.114;2023-03-16T07:17:59;101419.22;;;4.74;100.00
59170;BME280;52474;52.236;5.114;2023-03-16T07:20:25;101426.94;;;4.77;100.00
59170;BME280;52474;52.236;5.114;2023-03-16T07:22:53;101436.69;;;4.75;100.00
59170;BME280;52474;52.236;5.114;2023-03-16T07:25:19;101424.03;;;4.66;100.00
59170;BME280;52474;52.236;5.114;2023-03-16T07:27:49;101415.84;;;4.55;100.00
59170;BME280;52474;52.236;5.114;2023-03-16T07:30:22;101436.69;;;4.58;100.00
59170;BME280;52474;52.236;5.114;2023-03-16T07:32:53;101436.00;;;4.54;100.00
59170;BME280;52474;52.236;5.114;2023-03-16T07:35:21;101423.97;;;4.50;100.00
59170;BME280;52474;52.236;5.114;2023-03-16T07:37:48;101404.59;;;4.35;100.00
59170;BME280;52474;52.236;5.114;2023-03-16T07:40:14;101432.94;;;4.46;100.00
59170;BME280;52474;52.236;5.114;2023-03-16T07:42:41;101424.19;;;4.45;100.00
59170;BME280;52474;52.236;5.114;2023-03-16T07:45:13;101420.88;;;4.42;100.00
59170;BME280;52474;52.236;5.114;2023-03-16T07:47:43;101441.00;;;4.59;100.00
59170;BME280;52474;52.236;5.114;2023-03-16T07:50:24;101425.50;;;4.54;100.00
59170;BME280;52474;52.236;5.114;2023-03-16T07:52:52;101445.94;;;4.65;100.00
59170;BME280;52474;52.236;5.114;2023-03-16T07:55:19;101439.31;;;4.75;100.00
59170;BME280;52474;52.236;5.114;2023-03-16T07:57:45;101428.94;;;4.89;100.00
59170;BME280;52474;52.236;5.114;2023-03-16T08:00:19;101434.00;;;5.10;100.00
59170;BME280;52474;52.236;5.114;2023-03-16T08:02:51;101422.50;;;5.12;100.00
59170;BME280;52474;52.236;5.114;2023-03-16T08:05:18;101422.84;;;5.22;100.00
59170;BME280;52474;52.236;5.114;2023-03-16T08:07:51;101420.28;;;5.36;100.00
59170;BME280;52474;52.236;5.114;2023-03-16T08:10:20;101408.94;;;5.36;100.00
59170;BME280;52474;52.236;5.114;2023-03-16T08:12:55;101410.81;;;5.34;100.00
59170;BME280;52474;52.236;5.114;2023-03-16T08:15:21;101410.31;;;5.43;100.00
59170;BME280;52474;52.236;5.114;2023-03-16T08:17:49;101408.94;;;5.36;100.00
59170;BME280;52474;52.236;5.114;2023-03-16T08:20:21;101412.75;;;5.30;100.00
59170;BME280;52474;52.236;5.114;2023-03-16T08:22:47;101407.44;;;5.32;100.00
59170;BME280;52474;52.236;5.114;2023-03-16T08:25:16;101419.81;;;5.30;100.00
59170;BME280;52474;52.236;5.114;2023-03-16T08:27:52;101416.06;;;5.34;100.00
59170;BME280;52474;52.236;5.114;2023-03-16T08:30:18;101420.75;;;5.45;100.00
59170;BME280;52474;52.236;5.114;2023-03-16T08:32:51;101419.22;;;5.41;100.00
59170;BME280;52474;52.236;5.114;2023-03-16T08:35:17;101416.16;;;5.48;100.00
59170;BME280;52474;52.236;5.114;2023-03-16T08:37:44;101417.28;;;5.44;100.00
59170;BME280;52474;52.236;5.114;2023-03-16T08:40:11;101398.53;;;5.50;100.00
59170;BME280;52474;52.236;5.114;2023-03-16T08:42:41;101422.69;;;5.57;100.00
59170;BME280;52474;52.236;5.114;2023-03-16T08:45:10;101417.09;;;5.63;100.00
59170;BME280;52474;52.236;5.114;2023-03-16T08:47:38;101407.28;;;5.67;100.00
59170;BME280;52474;52.236;5.114;2023-03-16T08:50:11;101412.03;;;5.76;100.00
59170;BME280;52474;52.236;5.114;2023-03-16T08:52:38;101409.47;;;5.74;100.00
59170;BME280;52474;52.236;5.114;2023-03-16T08:55:05;101398.53;;;5.82;100.00
59170;BME280;52474;52.236;5.114;2023-03-16T08:57:32;101402.44;;;5.91;100.00
59170;BME280;52474;52.236;5.114;2023-03-16T08:59:58;101410.75;;;5.99;100.00
59170;BME280;52474;52.236;5.114;2023-03-16T09:02:24;101408.63;;;6.06;100.00
59170;BME280;52474;52.236;5.114;2023-03-16T09:04:51;101401.47;;;6.08;100.00
59170;BME280;52474;52.236;5.114;2023-03-16T09:07:17;101403.63;;;6.01;100.00
59170;BME280;52474;52.236;5.114;2023-03-16T09:09:43;101402.41;;;6.07;100.00
59170;BME280;52474;52.236;5.114;2023-03-16T09:12:10;101398.84;;;6.08;100.00
59170;BME280;52474;52.236;5.114;2023-03-16T09:14:36;101399.41;;;6.13;100.00
59170;BME280;52474;52.236;5.114;2023-03-16T09:17:03;101396.78;;;6.13;100.00
59170;BME280;52474;52.236;5.114;2023-03-16T09:19:29;101387.91;;;6.30;100.00
59170;BME280;52474;52.236;5.114;2023-03-16T09:21:58;101393.28;;;6.28;100.00
59170;BME280;52474;52.236;5.114;2023-03-16T09:24:23;101401.84;;;6.32;100.00
59170;BME280;52474;52.236;5.114;2023-03-16T09:26:50;101379.56;;;6.37;100.00
59170;BME280;52474;52.236;5.114;2023-03-16T09:29:16;101395.38;;;6.52;100.00
59170;BME280;52474;52.236;5.114;2023-03-16T09:31:44;101368.31;;;6.50;100.00
59170;BME280;52474;52.236;5.114;2023-03-16T09:34:10;101391.13;;;6.79;100.00
59170;BME280;52474;52.236;5.114;2023-03-16T09:36:36;101379.38;;;6.99;100.00
59170;BME280;52474;52.236;5.114;2023-03-16T09:39:02;101375.41;;;7.48;100.00
59170;BME280;52474;52.236;5.114;2023-03-16T09:47:09;101368.88;;;8.48;100.00
59170;BME280;52474;52.236;5.114;2023-03-16T09:49:47;101381.00;;;11.26;100.00
59170;BME280;52474;52.236;5.114;2023-03-16T09:55:05;101349.03;;;13.28;100.00
59170;BME280;52474;52.236;5.114;2023-03-16T09:57:34;101361.84;;;11.66;100.00
59170;BME280;52474;52.236;5.114;2023-03-16T10:00:16;101348.09;;;12.25;100.00
59170;BME280;52474;52.236;5.114;2023-03-16T10:05:14;101352.44;;;9.19;100.00
59170;BME280;52474;52.236;5.114;2023-03-16T10:12:42;101334.16;;;10.13;100.00
59170;BME280;52474;52.236;5.114;2023-03-16T10:15:14;101343.72;;;11.82;100.00
59170;BME280;52474;52.236;5.114;2023-03-16T10:17:51;101330.19;;;13.99;100.00
59170;BME280;52474;52.236;5.114;2023-03-16T10:20:21;101331.22;;;15.20;100.00
59170;BME280;52474;52.236;5.114;2023-03-16T10:22:50;101334.47;;;16.57;100.00
59170;BME280;52474;52.236;5.114;2023-03-16T10:27:57;101321.50;;;14.07;100.00
59170;BME280;52474;52.236;5.114;2023-03-16T10:30:34;101323.50;;;12.23;100.00
59170;BME280;52474;52.236;5.114;2023-03-16T10:33:09;101314.25;;;11.86;100.00
59170;BME280;52474;52.236;5.114;2023-03-16T10:35:47;101310.94;;;12.87;100.00
59170;BME280;52474;52.236;5.114;2023-03-16T10:38:38;101334.91;;;12.97;100.00
59170;BME280;52474;52.236;5.114;2023-03-16T10:41:27;101303.28;;;14.02;100.00
59170;BME280;52474;52.236;5.114;2023-03-16T10:43:55;101326.53;;;13.81;100.00
59170;BME280;52474;52.236;5.114;2023-03-16T10:46:26;101308.47;;;13.55;100.00
59170;BME280;52474;52.236;5.114;2023-03-16T10:48:57;101304.59;;;13.19;100.00
59170;BME280;52474;52.236;5.114;2023-03-16T10:51:28;101313.63;;;11.93;100.00
59170;BME280;52474;52.236;5.114;2023-03-16T10:56:42;101293.03;;;11.21;100.00
59170;BME280;52474;52.236;5.114;2023-03-16T10:59:34;101291.38;;;10.75;100.00
59170;BME280;52474;52.236;5.114;2023-03-16T11:02:13;101288.16;;;10.49;100.00
59170;BME280;52474;52.236;5.114;2023-03-16T11:04:39;101286.56;;;10.58;100.00
59170;BME280;52474;52.236;5.114;2023-03-16T11:07:06;101283.47;;;10.41;100.00
59170;BME280;52474;52.236;5.114;2023-03-16T11:09:36;101296.72;;;10.06;100.00
59170;BME280;52474;52.236;5.114;2023-03-16T11:12:13;101280.97;;;10.16;100.00
59170;BME280;52474;52.236;5.114;2023-03-16T11:14:43;101280.72;;;10.07;100.00
59170;BME280;52474;52.236;5.114;2023-03-16T11:17:12;101280.38;;;10.12;100.00
59170;BME280;52474;52.236;5.114;2023-03-16T11:19:51;101273.88;;;10.16;100.00
59170;BME280;52474;52.236;5.114;2023-03-16T11:22:23;101263.09;;;10.30;100.00
59170;BME280;52474;52.236;5.114;2023-03-16T11:27:23;101267.75;;;10.27;100.00
59170;BME280;52474;52.236;5.114;2023-03-16T11:32:29;101268.50;;;10.63;100.00
59170;BME280;52474;52.236;5.114;2023-03-16T11:34:58;101260.47;;;10.76;100.00
59170;BME280;52474;52.236;5.114;2023-03-16T11:40:32;101263.66;;;11.13;100.00
59170;BME280;52474;52.236;5.114;2023-03-16T11:48:43;101257.88;;;11.08;100.00
59170;BME280;52474;52.236;5.114;2023-03-16T11:54:02;101248.59;;;11.02;100.00
59170;BME280;52474;52.236;5.114;2023-03-16T11:56:38;101256.09;;;11.41;100.00
59170;BME280;52474;52.236;5.114;2023-03-16T11:59:32;101248.88;;;11.85;100.00
59170;BME280;52474;52.236;5.114;2023-03-16T12:04:46;101248.38;;;12.12;100.00
59170;BME280;52474;52.236;5.114;2023-03-16T12:07:29;101248.78;;;12.07;100.00
59170;BME280;52474;52.236;5.114;2023-03-16T12:10:17;101239.31;;;11.93;100.00
59170;BME280;52474;52.236;5.114;2023-03-16T12:12:55;101252.50;;;11.83;100.00
59170;BME280;52474;52.236;5.114;2023-03-16T12:15:35;101246.47;;;11.60;100.00
59170;BME280;52474;52.236;5.114;2023-03-16T12:21:17;101239.38;;;12.03;100.00
59170;BME280;52474;52.236;5.114;2023-03-16T12:23:53;101233.91;;;11.95;100.00
59170;BME280;52474;52.236;5.114;2023-03-16T12:26:22;101222.34;;;11.64;100.00
59170;BME280;52474;52.236;5.114;2023-03-16T12:28:50;101230.38;;;11.73;100.00
59170;BME280;52474;52.236;5.114;2023-03-16T12:31:19;101237.31;;;11.65;100.00
59170;BME280;52474;52.236;5.114;2023-03-16T12:39:31;101226.22;;;12.22;100.00
59170;BME280;52474;52.236;5.114;2023-03-16T12:42:46;101211.88;;;12.35;100.00
59170;BME280;52474;52.236;5.114;2023-03-16T12:45:00;101207.50;;;12.64;100.00
59170;BME280;52474;52.236;5.114;2023-03-16T12:49:52;101179.59;;;12.80;100.00
59170;BME280;52474;52.236;5.114;2023-03-16T12:52:21;101174.59;;;13.55;100.00
59170;BME280;52474;52.236;5.114;2023-03-16T12:54:52;101153.44;;;14.00;100.00
59170;BME280;52474;52.236;5.114;2023-03-16T12:57:21;101146.59;;;14.35;100.00
59170;BME280;52474;52.236;5.114;2023-03-16T12:59:56;101123.78;;;14.23;100.00
59170;BME280;52474;52.236;5.114;2023-03-16T13:02:28;101151.84;;;13.80;100.00
59170;BME280;52474;52.236;5.114;2023-03-16T13:04:57;101127.06;;;13.69;100.00
59170;BME280;52474;52.236;5.114;2023-03-16T13:07:26;101149.09;;;14.36;100.00
59170;BME280;52474;52.236;5.114;2023-03-16T13:12:32;101122.81;;;13.86;100.00
59170;BME280;52474;52.236;5.114;2023-03-16T13:15:14;101134.84;;;14.28;100.00
59170;BME280;52474;52.236;5.114;2023-03-16T13:17:42;101117.91;;;14.19;100.00
59170;BME280;52474;52.236;5.114;2023-03-16T13:22:41;101143.94;;;13.31;100.00
59170;BME280;52474;52.236;5.114;2023-03-16T13:25:38;101122.78;;;13.49;100.00
59170;BME280;52474;52.236;5.114;2023-03-16T13:28:05;101115.69;;;13.77;100.00
59170;BME280;52474;52.236;5.114;2023-03-16T13:30:33;101100.88;;;14.02;100.00
59170;BME280;52474;52.236;5.114;2023-03-16T13:33:13;101116.06;;;14.75;100.00
59170;BME280;52474;52.236;5.114;2023-03-16T13:35:42;101119.09;;;14.62;100.00
59170;BME280;52474;52.236;5.114;2023-03-16T13:38:14;101104.09;;;14.33;100.00
59170;BME280;52474;52.236;5.114;2023-03-16T13:40:51;101105.34;;;13.74;100.00
59170;BME280;52474;52.236;5.114;2023-03-16T13:43:21;101100.31;;;14.08;100.00
59170;BME280;52474;52.236;5.114;2023-03-16T13:45:48;101088.97;;;14.06;100.00
59170;BME280;52474;52.236;5.114;2023-03-16T13:48:15;101106.00;;;13.86;100.00
59170;BME280;52474;52.236;5.114;2023-03-16T13:50:41;101097.97;;;14.23;100.00
59170;BME280;52474;52.236;5.114;2023-03-16T13:53:16;101092.66;;;14.23;100.00
59170;BME280;52474;52.236;5.114;2023-03-16T13:55:45;101111.41;;;14.04;100.00
59170;BME280;52474;52.236;5.114;2023-03-16T13:58:21;101100.00;;;14.11;100.00
59170;BME280;52474;52.236;5.114;2023-03-16T14:00:48;101083.84;;;14.23;100.00
59170;BME280;52474;52.236;5.114;2023-03-16T14:03:18;101092.88;;;14.30;100.00
59170;BME280;52474;52.236;5.114;2023-03-16T14:05:46;101091.97;;;14.21;100.00
59170;BME280;52474;52.236;5.114;2023-03-16T14:08:20;101096.03;;;13.41;100.00
59170;BME280;52474;52.236;5.114;2023-03-16T14:10:49;101098.69;;;13.21;100.00